sensor_id;sensor_type;location;lat;lon;timestamp;temperature;humidity
14093;DHT22;7123;49.468;10.992;2022-10-14T00:00:41;14.20;99.90
14093;DHT22;7123;49.468;10.992;2022-10-14T00:03:08;14.20;99.90
14093;DHT22;7123;49.468;10.992;2022-10-14T00:05:39;14.10;99.90
14093;DHT22;7123;49.468;10.992;2022-10-14T00:08:07;14.10;99.90
14093;DHT22;7123;49.468;10.992;2022-10-14T00:10:38;14.10;99.90
14093;DHT22;7123;49.468;10.992;2022-10-14T00:13:05;14.00;99.90
14093;DHT22;7123;49.468;10.992;2022-10-14T00:15:39;14.00;99.90
14093;DHT22;7123;49.468;10.992;2022-10-14T00:18:07;14.00;99.90
14093;DHT22;7123;49.468;10.992;2022-10-14T00:20:35;14.00;99.90
14093;DHT22;7123;49.468;10.992;2022-10-14T00:23:02;14.00;99.90
14093;DHT22;7123;49.468;10.992;2022-10-14T00:25:29;14.00;99.90
14093;DHT22;7123;49.468;10.992;2022-10-14T00:27:55;14.00;99.90
14093;DHT22;7123;49.468;10.992;2022-10-14T00:30:22;14.00;99.90
14093;DHT22;7123;49.468;10.992;2022-10-14T00:32:49;14.00;99.90
14093;DHT22;7123;49.468;10.992;2022-10-14T00:35:15;14.00;99.90
14093;DHT22;7123;49.468;10.992;2022-10-14T00:37:42;14.00;99.90
14093;DHT22;7123;49.468;10.992;2022-10-14T00:40:09;14.00;99.90
14093;DHT22;7123;49.468;10.992;2022-10-14T00:42:36;14.00;99.90
14093;DHT22;7123;49.468;10.992;2022-10-14T00:45:09;13.90;99.90
14093;DHT22;7123;49.468;10.992;2022-10-14T00:47:38;13.90;99.90
14093;DHT22;7123;49.468;10.992;2022-10-14T00:50:06;13.80;99.90
14093;DHT22;7123;49.468;10.992;2022-10-14T00:52:33;13.70;99.90
14093;DHT22;7123;49.468;10.992;2022-10-14T00:55:05;13.50;99.90
14093;DHT22;7123;49.468;10.992;2022-10-14T00:57:34;13.40;99.90
14093;DHT22;7123;49.468;10.992;2022-10-14T01:00:07;13.30;99.90
14093;DHT22;7123;49.468;10.992;2022-10-14T01:02:35;13.30;99.90
14093;DHT22;7123;49.468;10.992;2022-10-14T01:05:03;13.30;99.90
14093;DHT22;7123;49.468;10.992;2022-10-14T01:10:25;13.30;99.90
14093;DHT22;7123;49.468;10.992;2022-10-14T01:15:48;13.40;99.90
14093;DHT22;7123;49.468;10.992;2022-10-14T01:22:27;13.70;99.90
14093;DHT22;7123;49.468;10.992;2022-10-14T01:24:43;13.80;99.90
14093;DHT22;7123;49.468;10.992;2022-10-14T01:27:24;13.90;99.90
14093;DHT22;7123;49.468;10.992;2022-10-14T01:30:04;14.00;99.90
14093;DHT22;7123;49.468;10.992;2022-10-14T01:33:00;14.00;99.90
14093;DHT22;7123;49.468;10.992;2022-10-14T01:38:18;14.00;99.90
14093;DHT22;7123;49.468;10.992;2022-10-14T01:41:37;14.00;99.90
14093;DHT22;7123;49.468;10.992;2022-10-14T01:43:38;14.00;99.90
14093;DHT22;7123;49.468;10.992;2022-10-14T01:46:07;14.10;99.90
14093;DHT22;7123;49.468;10.992;2022-10-14T01:48:39;14.10;99.90
14093;DHT22;7123;49.468;10.992;2022-10-14T01:51:13;14.10;99.90
14093;DHT22;7123;49.468;10.992;2022-10-14T01:53:50;14.10;99.90
14093;DHT22;7123;49.468;10.992;2022-10-14T01:56:19;13.90;99.90
14093;DHT22;7123;49.468;10.992;2022-10-14T01:58:47;13.90;99.90
14093;DHT22;7123;49.468;10.992;2022-10-14T02:01:13;13.80;99.90
14093;DHT22;7123;49.468;10.992;2022-10-14T02:03:43;13.80;99.90
14093;DHT22;7123;49.468;10.992;2022-10-14T02:06:33;13.90;99.90
14093;DHT22;7123;49.468;10.992;2022-10-14T02:11:43;13.90;99.90
14093;DHT22;7123;49.468;10.992;2022-10-14T02:17:28;14.00;99.90
14093;DHT22;7123;49.468;10.992;2022-10-14T02:20:02;14.10;99.90
14093;DHT22;7123;49.468;10.992;2022-10-14T02:22:41;14.20;99.90
14093;DHT22;7123;49.468;10.992;2022-10-14T02:25:27;14.20;99.90
14093;DHT22;7123;49.468;10.992;2022-10-14T02:27:57;14.20;99.90
14093;DHT22;7123;49.468;10.992;2022-10-14T02:30:26;14.30;99.90
14093;DHT22;7123;49.468;10.992;2022-10-14T02:32:55;14.20;99.90
14093;DHT22;7123;49.468;10.992;2022-10-14T02:35:23;14.30;99.90
14093;DHT22;7123;49.468;10.992;2022-10-14T02:37:51;14.30;99.90
14093;DHT22;7123;49.468;10.992;2022-10-14T02:42:52;14.30;99.90
14093;DHT22;7123;49.468;10.992;2022-10-14T02:45:18;14.30;99.90
14093;DHT22;7123;49.468;10.992;2022-10-14T02:47:46;14.30;99.90
14093;DHT22;7123;49.468;10.992;2022-10-14T02:50:12;14.30;99.90
14093;DHT22;7123;49.468;10.992;2022-10-14T02:52:39;14.30;99.90
14093;DHT22;7123;49.468;10.992;2022-10-14T02:55:06;14.30;99.90
14093;DHT22;7123;49.468;10.992;2022-10-14T02:57:33;14.30;99.90
14093;DHT22;7123;49.468;10.992;2022-10-14T02:59:59;14.30;99.90
14093;DHT22;7123;49.468;10.992;2022-10-14T03:02:26;14.30;99.90
14093;DHT22;7123;49.468;10.992;2022-10-14T03:04:52;14.30;99.90
14093;DHT22;7123;49.468;10.992;2022-10-14T03:07:19;14.30;99.90
14093;DHT22;7123;49.468;10.992;2022-10-14T03:09:46;14.30;99.90
14093;DHT22;7123;49.468;10.992;2022-10-14T03:12:12;14.30;99.90
14093;DHT22;7123;49.468;10.992;2022-10-14T03:14:39;14.30;99.90
14093;DHT22;7123;49.468;10.992;2022-10-14T03:17:05;14.30;99.90
14093;DHT22;7123;49.468;10.992;2022-10-14T03:19:32;14.30;99.90
14093;DHT22;7123;49.468;10.992;2022-10-14T03:21:59;14.30;99.90
14093;DHT22;7123;49.468;10.992;2022-10-14T03:24:26;14.30;99.90
14093;DHT22;7123;49.468;10.992;2022-10-14T03:26:52;14.30;99.90
14093;DHT22;7123;49.468;10.992;2022-10-14T03:29:19;14.30;99.90
14093;DHT22;7123;49.468;10.992;2022-10-14T03:31:45;14.30;99.90
14093;DHT22;7123;49.468;10.992;2022-10-14T03:34:12;14.20;99.90
14093;DHT22;7123;49.468;10.992;2022-10-14T03:36:39;14.20;99.90
14093;DHT22;7123;49.468;10.992;2022-10-14T03:39:05;14.10;99.90
14093;DHT22;7123;49.468;10.992;2022-10-14T03:41:32;14.10;99.90
14093;DHT22;7123;49.468;10.992;2022-10-14T03:43:58;14.10;99.90
14093;DHT22;7123;49.468;10.992;2022-10-14T03:46:25;14.10;99.90
14093;DHT22;7123;49.468;10.992;2022-10-14T03:48:52;14.10;99.90
14093;DHT22;7123;49.468;10.992;2022-10-14T03:51:19;14.20;99.90
14093;DHT22;7123;49.468;10.992;2022-10-14T03:53:45;14.20;99.90
14093;DHT22;7123;49.468;10.992;2022-10-14T03:56:12;14.20;99.90
14093;DHT22;7123;49.468;10.992;2022-10-14T03:58:39;14.20;99.90
14093;DHT22;7123;49.468;10.992;2022-10-14T04:01:05;14.20;99.90
14093;DHT22;7123;49.468;10.992;2022-10-14T04:03:32;14.10;99.90
14093;DHT22;7123;49.468;10.992;2022-10-14T04:05:59;14.10;99.90
14093;DHT22;7123;49.468;10.992;2022-10-14T04:08:26;14.10;99.90
14093;DHT22;7123;49.468;10.992;2022-10-14T04:10:52;14.10;99.90
14093;DHT22;7123;49.468;10.992;2022-10-14T04:13:20;14.10;99.90
14093;DHT22;7123;49.468;10.992;2022-10-14T04:15:47;14.10;99.90
14093;DHT22;7123;49.468;10.992;2022-10-14T04:18:14;14.10;99.90
14093;DHT22;7123;49.468;10.992;2022-10-14T04:20:41;14.10;99.90
14093;DHT22;7123;49.468;10.992;2022-10-14T04:23:07;14.10;99.90
14093;DHT22;7123;49.468;10.992;2022-10-14T04:25:37;14.10;99.90
14093;DHT22;7123;49.468;10.992;2022-10-14T04:28:04;14.10;99.90
14093;DHT22;7123;49.468;10.992;2022-10-14T04:30:31;14.10;99.90
14093;DHT22;7123;49.468;10.992;2022-10-14T04:32:57;14.10;99.90
14093;DHT22;7123;49.468;10.992;2022-10-14T04:35:24;14.00;99.90
14093;DHT22;7123;49.468;10.992;2022-10-14T04:37:50;14.00;99.90
14093;DHT22;7123;49.468;10.992;2022-10-14T04:40:17;14.00;99.90
14093;DHT22;7123;49.468;10.992;2022-10-14T04:42:45;13.90;99.90
14093;DHT22;7123;49.468;10.992;2022-10-14T04:45:12;13.90;99.90
14093;DHT22;7123;49.468;10.992;2022-10-14T04:47:39;13.90;99.90
14093;DHT22;7123;49.468;10.992;2022-10-14T04:50:11;13.90;99.90
14093;DHT22;7123;49.468;10.992;2022-10-14T04:52:38;14.00;99.90
14093;DHT22;7123;49.468;10.992;2022-10-14T04:55:05;14.00;99.90
14093;DHT22;7123;49.468;10.992;2022-10-14T04:57:32;14.00;99.90
14093;DHT22;7123;49.468;10.992;2022-10-14T04:59:58;14.00;99.90
14093;DHT22;7123;49.468;10.992;2022-10-14T05:02:25;14.10;99.90
14093;DHT22;7123;49.468;10.992;2022-10-14T05:04:51;14.10;99.90
14093;DHT22;7123;49.468;10.992;2022-10-14T05:07:18;14.10;99.90
14093;DHT22;7123;49.468;10.992;2022-10-14T05:09:45;14.10;99.90
14093;DHT22;7123;49.468;10.992;2022-10-14T05:12:17;14.10;99.90
14093;DHT22;7123;49.468;10.992;2022-10-14T05:14:44;14.10;99.90
14093;DHT22;7123;49.468;10.992;2022-10-14T05:17:11;14.10;99.90
14093;DHT22;7123;49.468;10.992;2022-10-14T05:19:38;14.10;99.90
14093;DHT22;7123;49.468;10.992;2022-10-14T05:22:05;14.00;99.90
14093;DHT22;7123;49.468;10.992;2022-10-14T05:24:32;14.10;99.90
14093;DHT22;7123;49.468;10.992;2022-10-14T05:26:58;14.10;99.90
14093;DHT22;7123;49.468;10.992;2022-10-14T05:29:25;14.10;99.90
14093;DHT22;7123;49.468;10.992;2022-10-14T05:31:51;14.10;99.90
14093;DHT22;7123;49.468;10.992;2022-10-14T05:34:18;14.10;99.90
14093;DHT22;7123;49.468;10.992;2022-10-14T05:36:45;14.20;99.90
14093;DHT22;7123;49.468;10.992;2022-10-14T05:39:11;14.20;99.90
14093;DHT22;7123;49.468;10.992;2022-10-14T05:41:38;14.20;99.90
14093;DHT22;7123;49.468;10.992;2022-10-14T05:44:05;14.20;99.90
14093;DHT22;7123;49.468;10.992;2022-10-14T05:46:32;14.10;99.90
14093;DHT22;7123;49.468;10.992;2022-10-14T05:48:58;14.20;99.90
14093;DHT22;7123;49.468;10.992;2022-10-14T05:51:27;14.10;99.90
14093;DHT22;7123;49.468;10.992;2022-10-14T05:53:54;14.10;99.90
14093;DHT22;7123;49.468;10.992;2022-10-14T05:56:20;14.10;99.90
14093;DHT22;7123;49.468;10.992;2022-10-14T05:58:47;14.20;99.90
14093;DHT22;7123;49.468;10.992;2022-10-14T06:01:14;14.10;99.90
14093;DHT22;7123;49.468;10.992;2022-10-14T06:03:40;14.20;99.90
14093;DHT22;7123;49.468;10.992;2022-10-14T06:06:12;14.10;99.90
14093;DHT22;7123;49.468;10.992;2022-10-14T06:08:40;14.20;99.90
14093;DHT22;7123;49.468;10.992;2022-10-14T06:11:06;14.20;99.90
14093;DHT22;7123;49.468;10.992;2022-10-14T06:13:34;14.20;99.90
14093;DHT22;7123;49.468;10.992;2022-10-14T06:16:05;14.20;99.90
14093;DHT22;7123;49.468;10.992;2022-10-14T06:18:32;14.20;99.90
14093;DHT22;7123;49.468;10.992;2022-10-14T06:20:59;14.20;99.90
14093;DHT22;7123;49.468;10.992;2022-10-14T06:23:26;14.20;99.90
14093;DHT22;7123;49.468;10.992;2022-10-14T06:25:53;14.30;99.90
14093;DHT22;7123;49.468;10.992;2022-10-14T06:28:20;14.30;99.90
14093;DHT22;7123;49.468;10.992;2022-10-14T06:30:50;14.20;99.90
14093;DHT22;7123;49.468;10.992;2022-10-14T06:33:17;14.20;99.90
14093;DHT22;7123;49.468;10.992;2022-10-14T06:35:44;14.20;99.90
14093;DHT22;7123;49.468;10.992;2022-10-14T06:38:11;14.20;99.90
14093;DHT22;7123;49.468;10.992;2022-10-14T06:40:38;14.20;99.90
14093;DHT22;7123;49.468;10.992;2022-10-14T06:43:05;14.30;99.90
14093;DHT22;7123;49.468;10.992;2022-10-14T06:45:32;14.20;99.90
14093;DHT22;7123;49.468;10.992;2022-10-14T06:47:59;14.30;99.90
14093;DHT22;7123;49.468;10.992;2022-10-14T06:50:25;14.30;99.90
14093;DHT22;7123;49.468;10.992;2022-10-14T06:52:52;14.30;99.90
14093;DHT22;7123;49.468;10.992;2022-10-14T06:55:19;14.30;99.90
14093;DHT22;7123;49.468;10.992;2022-10-14T06:57:45;14.30;99.90
14093;DHT22;7123;49.468;10.992;2022-10-14T07:00:12;14.30;99.90
14093;DHT22;7123;49.468;10.992;2022-10-14T07:02:39;14.30;99.90
14093;DHT22;7123;49.468;10.992;2022-10-14T07:05:05;14.30;99.90
14093;DHT22;7123;49.468;10.992;2022-10-14T07:07:33;14.30;99.90
14093;DHT22;7123;49.468;10.992;2022-10-14T07:09:59;14.30;99.90
14093;DHT22;7123;49.468;10.992;2022-10-14T07:12:26;14.30;99.90
14093;DHT22;7123;49.468;10.992;2022-10-14T07:14:53;14.30;99.90
14093;DHT22;7123;49.468;10.992;2022-10-14T07:17:19;14.40;99.90
14093;DHT22;7123;49.468;10.992;2022-10-14T07:19:46;14.40;99.90
14093;DHT22;7123;49.468;10.992;2022-10-14T07:22:13;14.40;99.90
14093;DHT22;7123;49.468;10.992;2022-10-14T07:24:42;14.40;99.90
14093;DHT22;7123;49.468;10.992;2022-10-14T07:27:09;14.40;99.90
14093;DHT22;7123;49.468;10.992;2022-10-14T07:29:36;14.40;99.90
14093;DHT22;7123;49.468;10.992;2022-10-14T07:32:03;14.40;99.90
14093;DHT22;7123;49.468;10.992;2022-10-14T07:34:30;14.40;99.90
14093;DHT22;7123;49.468;10.992;2022-10-14T07:36:59;14.40;99.90
14093;DHT22;7123;49.468;10.992;2022-10-14T07:39:26;14.40;99.90
14093;DHT22;7123;49.468;10.992;2022-10-14T07:41:54;14.50;99.90
14093;DHT22;7123;49.468;10.992;2022-10-14T07:44:21;14.40;99.90
14093;DHT22;7123;49.468;10.992;2022-10-14T07:46:53;14.50;99.90
14093;DHT22;7123;49.468;10.992;2022-10-14T07:49:20;14.50;99.90
14093;DHT22;7123;49.468;10.992;2022-10-14T07:51:47;14.50;99.90
14093;DHT22;7123;49.468;10.992;2022-10-14T07:54:20;14.40;99.90
14093;DHT22;7123;49.468;10.992;2022-10-14T07:56:48;14.50;99.90
14093;DHT22;7123;49.468;10.992;2022-10-14T07:59:17;14.50;99.90
14093;DHT22;7123;49.468;10.992;2022-10-14T08:01:48;14.50;99.90
14093;DHT22;7123;49.468;10.992;2022-10-14T08:04:16;14.50;99.90
14093;DHT22;7123;49.468;10.992;2022-10-14T08:06:42;14.50;99.90
14093;DHT22;7123;49.468;10.992;2022-10-14T08:09:10;14.50;99.90
14093;DHT22;7123;49.468;10.992;2022-10-14T08:11:37;14.50;99.90
14093;DHT22;7123;49.468;10.992;2022-10-14T08:14:04;14.60;99.90
14093;DHT22;7123;49.468;10.992;2022-10-14T08:16:33;14.50;99.90
14093;DHT22;7123;49.468;10.992;2022-10-14T08:19:06;14.50;99.90
14093;DHT22;7123;49.468;10.992;2022-10-14T08:21:40;14.50;99.90
14093;DHT22;7123;49.468;10.992;2022-10-14T08:24:07;14.50;99.90
14093;DHT22;7123;49.468;10.992;2022-10-14T08:26:36;14.50;99.90
14093;DHT22;7123;49.468;10.992;2022-10-14T08:29:06;14.60;99.90
14093;DHT22;7123;49.468;10.992;2022-10-14T08:31:35;14.60;99.90
14093;DHT22;7123;49.468;10.992;2022-10-14T08:34:01;14.60;99.90
14093;DHT22;7123;49.468;10.992;2022-10-14T08:36:28;14.60;99.90
14093;DHT22;7123;49.468;10.992;2022-10-14T08:38:55;14.50;99.90
14093;DHT22;7123;49.468;10.992;2022-10-14T08:44:25;14.60;99.90
14093;DHT22;7123;49.468;10.992;2022-10-14T08:46:57;14.60;99.90
14093;DHT22;7123;49.468;10.992;2022-10-14T08:49:36;14.60;99.90
14093;DHT22;7123;49.468;10.992;2022-10-14T08:52:11;14.70;99.90
14093;DHT22;7123;49.468;10.992;2022-10-14T08:54:43;14.70;99.90
14093;DHT22;7123;49.468;10.992;2022-10-14T08:57:15;14.80;99.90
14093;DHT22;7123;49.468;10.992;2022-10-14T08:59:43;14.80;99.90
14093;DHT22;7123;49.468;10.992;2022-10-14T09:02:47;14.90;99.90
14093;DHT22;7123;49.468;10.992;2022-10-14T09:05:21;14.90;99.90
14093;DHT22;7123;49.468;10.992;2022-10-14T09:07:54;15.00;99.90
14093;DHT22;7123;49.468;10.992;2022-10-14T09:10:41;15.00;99.90
14093;DHT22;7123;49.468;10.992;2022-10-14T09:13:26;15.00;99.90
14093;DHT22;7123;49.468;10.992;2022-10-14T09:16:01;15.00;99.90
14093;DHT22;7123;49.468;10.992;2022-10-14T09:18:38;15.10;99.90
14093;DHT22;7123;49.468;10.992;2022-10-14T09:21:31;15.10;99.90
14093;DHT22;7123;49.468;10.992;2022-10-14T09:26:49;15.10;99.90
14093;DHT22;7123;49.468;10.992;2022-10-14T09:29:27;15.10;99.90
14093;DHT22;7123;49.468;10.992;2022-10-14T09:32:07;15.10;99.90
14093;DHT22;7123;49.468;10.992;2022-10-14T09:34:40;15.20;99.90
14093;DHT22;7123;49.468;10.992;2022-10-14T09:39:46;15.20;99.90
14093;DHT22;7123;49.468;10.992;2022-10-14T09:42:20;15.30;99.90
14093;DHT22;7123;49.468;10.992;2022-10-14T09:45:07;15.30;99.90
14093;DHT22;7123;49.468;10.992;2022-10-14T09:47:39;15.40;99.90
14093;DHT22;7123;49.468;10.992;2022-10-14T09:50:08;15.40;99.90
14093;DHT22;7123;49.468;10.992;2022-10-14T09:52:35;15.40;99.90
14093;DHT22;7123;49.468;10.992;2022-10-14T09:55:06;15.40;99.90
14093;DHT22;7123;49.468;10.992;2022-10-14T09:57:33;15.40;99.90
14093;DHT22;7123;49.468;10.992;2022-10-14T10:00:03;15.40;99.90
14093;DHT22;7123;49.468;10.992;2022-10-14T10:02:40;15.40;99.90
14093;DHT22;7123;49.468;10.992;2022-10-14T10:05:32;15.40;99.90
14093;DHT22;7123;49.468;10.992;2022-10-14T10:10:39;15.50;99.90
14093;DHT22;7123;49.468;10.992;2022-10-14T10:13:31;15.50;99.90
14093;DHT22;7123;49.468;10.992;2022-10-14T10:16:00;15.50;99.90
14093;DHT22;7123;49.468;10.992;2022-10-14T10:18:26;15.60;99.90
14093;DHT22;7123;49.468;10.992;2022-10-14T10:21:18;15.60;99.90
14093;DHT22;7123;49.468;10.992;2022-10-14T10:26:19;15.70;99.90
14093;DHT22;7123;49.468;10.992;2022-10-14T10:28:53;15.70;99.90
14093;DHT22;7123;49.468;10.992;2022-10-14T10:37:26;15.80;99.90
14093;DHT22;7123;49.468;10.992;2022-10-14T10:43:09;15.80;99.90
14093;DHT22;7123;49.468;10.992;2022-10-14T10:48:38;15.80;99.90
14093;DHT22;7123;49.468;10.992;2022-10-14T10:51:19;15.80;99.90
14093;DHT22;7123;49.468;10.992;2022-10-14T10:56:45;15.80;99.90
14093;DHT22;7123;49.468;10.992;2022-10-14T10:59:32;15.80;99.90
14093;DHT22;7123;49.468;10.992;2022-10-14T11:04:45;15.90;99.90
14093;DHT22;7123;49.468;10.992;2022-10-14T11:16:11;16.00;99.90
14093;DHT22;7123;49.468;10.992;2022-10-14T11:24:27;16.10;99.90
14093;DHT22;7123;49.468;10.992;2022-10-14T11:27:17;16.10;99.90
14093;DHT22;7123;49.468;10.992;2022-10-14T11:33:04;16.20;99.90
14093;DHT22;7123;49.468;10.992;2022-10-14T11:36:14;16.20;99.90
14093;DHT22;7123;49.468;10.992;2022-10-14T11:41:52;16.20;99.90
14093;DHT22;7123;49.468;10.992;2022-10-14T11:44:35;16.20;99.90
14093;DHT22;7123;49.468;10.992;2022-10-14T11:47:24;16.10;99.90
14093;DHT22;7123;49.468;10.992;2022-10-14T11:50:02;16.20;99.90
14093;DHT22;7123;49.468;10.992;2022-10-14T11:52:41;16.20;99.90
14093;DHT22;7123;49.468;10.992;2022-10-14T11:55:19;16.20;99.90
14093;DHT22;7123;49.468;10.992;2022-10-14T11:57:59;16.20;99.90
14093;DHT22;7123;49.468;10.992;2022-10-14T12:00:31;16.20;99.90
14093;DHT22;7123;49.468;10.992;2022-10-14T12:06:24;16.20;99.90
14093;DHT22;7123;49.468;10.992;2022-10-14T12:09:16;16.20;99.90
14093;DHT22;7123;49.468;10.992;2022-10-14T12:12:00;16.20;99.90
14093;DHT22;7123;49.468;10.992;2022-10-14T12:14:32;16.20;99.90
14093;DHT22;7123;49.468;10.992;2022-10-14T12:17:04;16.20;99.90
14093;DHT22;7123;49.468;10.992;2022-10-14T12:19:32;16.20;99.90
14093;DHT22;7123;49.468;10.992;2022-10-14T12:22:11;16.20;99.90
14093;DHT22;7123;49.468;10.992;2022-10-14T12:24:44;16.30;99.90
14093;DHT22;7123;49.468;10.992;2022-10-14T12:27:13;16.40;99.90
14093;DHT22;7123;49.468;10.992;2022-10-14T12:29:43;16.40;99.90
14093;DHT22;7123;49.468;10.992;2022-10-14T12:32:21;16.40;99.90
14093;DHT22;7123;49.468;10.992;2022-10-14T12:34:54;16.40;99.90
14093;DHT22;7123;49.468;10.992;2022-10-14T12:42:33;16.40;99.90
14093;DHT22;7123;49.468;10.992;2022-10-14T12:45:13;16.30;99.90
14093;DHT22;7123;49.468;10.992;2022-10-14T12:47:42;16.30;99.90
14093;DHT22;7123;49.468;10.992;2022-10-14T12:52:46;16.30;99.90
14093;DHT22;7123;49.468;10.992;2022-10-14T12:55:16;16.30;99.90
14093;DHT22;7123;49.468;10.992;2022-10-14T12:57:55;16.30;99.90
14093;DHT22;7123;49.468;10.992;2022-10-14T13:03:18;16.20;99.90
14093;DHT22;7123;49.468;10.992;2022-10-14T13:05:47;16.30;99.90
14093;DHT22;7123;49.468;10.992;2022-10-14T13:13:46;16.40;99.90
14093;DHT22;7123;49.468;10.992;2022-10-14T13:18:53;16.40;99.90
14093;DHT22;7123;49.468;10.992;2022-10-14T13:24:06;16.30;99.90
14093;DHT22;7123;49.468;10.992;2022-10-14T13:32:49;16.40;99.90
14093;DHT22;7123;49.468;10.992;2022-10-14T13:38:16;16.40;99.90
14093;DHT22;7123;49.468;10.992;2022-10-14T13:40:47;16.40;99.90
14093;DHT22;7123;49.468;10.992;2022-10-14T13:43:23;16.40;99.90
14093;DHT22;7123;49.468;10.992;2022-10-14T13:48:38;16.60;99.90
14093;DHT22;7123;49.468;10.992;2022-10-14T13:54:24;16.80;99.90
14093;DHT22;7123;49.468;10.992;2022-10-14T13:57:08;17.00;99.90
14093;DHT22;7123;49.468;10.992;2022-10-14T13:59:55;17.20;99.90
14093;DHT22;7123;49.468;10.992;2022-10-14T14:02:43;17.30;99.90
14093;DHT22;7123;49.468;10.992;2022-10-14T14:05:15;17.30;99.90
14093;DHT22;7123;49.468;10.992;2022-10-14T14:07:44;17.30;99.90
14093;DHT22;7123;49.468;10.992;2022-10-14T14:10:31;17.30;99.90
14093;DHT22;7123;49.468;10.992;2022-10-14T14:13:04;17.20;99.90
14093;DHT22;7123;49.468;10.992;2022-10-14T14:15:31;17.20;99.90
14093;DHT22;7123;49.468;10.992;2022-10-14T14:17:58;17.10;99.90
14093;DHT22;7123;49.468;10.992;2022-10-14T14:20:26;17.10;99.90
14093;DHT22;7123;49.468;10.992;2022-10-14T14:22:59;17.00;99.90
14093;DHT22;7123;49.468;10.992;2022-10-14T14:25:27;16.90;99.90
14093;DHT22;7123;49.468;10.992;2022-10-14T14:28:14;16.90;99.90
14093;DHT22;7123;49.468;10.992;2022-10-14T14:30:52;16.90;99.90
14093;DHT22;7123;49.468;10.992;2022-10-14T14:33:31;16.90;99.90
14093;DHT22;7123;49.468;10.992;2022-10-14T14:36:01;16.80;99.90
14093;DHT22;7123;49.468;10.992;2022-10-14T14:38:32;16.70;99.90
14093;DHT22;7123;49.468;10.992;2022-10-14T14:41:17;16.70;99.90
14093;DHT22;7123;49.468;10.992;2022-10-14T14:43:45;16.70;99.90
14093;DHT22;7123;49.468;10.992;2022-10-14T14:46:37;16.60;99.90
14093;DHT22;7123;49.468;10.992;2022-10-14T14:49:06;16.60;99.90
14093;DHT22;7123;49.468;10.992;2022-10-14T14:51:38;16.60;99.90
14093;DHT22;7123;49.468;10.992;2022-10-14T14:54:06;16.60;99.90
14093;DHT22;7123;49.468;10.992;2022-10-14T14:57:03;16.60;99.90
14093;DHT22;7123;49.468;10.992;2022-10-14T14:59:40;16.60;99.90
14093;DHT22;7123;49.468;10.992;2022-10-14T15:02:18;16.60;99.90
14093;DHT22;7123;49.468;10.992;2022-10-14T15:04:46;16.60;99.90
14093;DHT22;7123;49.468;10.992;2022-10-14T15:07:24;16.50;99.90
14093;DHT22;7123;49.468;10.992;2022-10-14T15:09:59;16.50;99.90
14093;DHT22;7123;49.468;10.992;2022-10-14T15:12:32;16.50;99.90
14093;DHT22;7123;49.468;10.992;2022-10-14T15:15:39;16.50;99.90
14093;DHT22;7123;49.468;10.992;2022-10-14T15:18:27;16.50;99.90
14093;DHT22;7123;49.468;10.992;2022-10-14T15:29:18;16.50;99.90
14093;DHT22;7123;49.468;10.992;2022-10-14T15:32:19;16.50;99.90
14093;DHT22;7123;49.468;10.992;2022-10-14T15:34:46;16.50;99.90
14093;DHT22;7123;49.468;10.992;2022-10-14T15:37:13;16.50;99.90
14093;DHT22;7123;49.468;10.992;2022-10-14T15:39:40;16.50;99.90
14093;DHT22;7123;49.468;10.992;2022-10-14T15:42:11;16.40;99.90
14093;DHT22;7123;49.468;10.992;2022-10-14T15:44:37;16.40;99.90
14093;DHT22;7123;49.468;10.992;2022-10-14T15:47:06;16.40;99.90
14093;DHT22;7123;49.468;10.992;2022-10-14T15:49:45;16.40;99.90
14093;DHT22;7123;49.468;10.992;2022-10-14T15:52:16;16.50;99.90
14093;DHT22;7123;49.468;10.992;2022-10-14T15:54:47;16.40;99.90
14093;DHT22;7123;49.468;10.992;2022-10-14T15:57:14;16.50;99.90
14093;DHT22;7123;49.468;10.992;2022-10-14T15:59:42;16.40;99.90
14093;DHT22;7123;49.468;10.992;2022-10-14T16:02:25;16.40;99.90
14093;DHT22;7123;49.468;10.992;2022-10-14T16:04:52;16.50;99.90
14093;DHT22;7123;49.468;10.992;2022-10-14T16:07:39;16.40;99.90
14093;DHT22;7123;49.468;10.992;2022-10-14T16:10:08;16.50;99.90
14093;DHT22;7123;49.468;10.992;2022-10-14T16:12:36;16.40;99.90
14093;DHT22;7123;49.468;10.992;2022-10-14T16:15:22;16.40;99.90
14093;DHT22;7123;49.468;10.992;2022-10-14T16:17:51;16.50;99.90
14093;DHT22;7123;49.468;10.992;2022-10-14T16:20:19;16.50;99.90
14093;DHT22;7123;49.468;10.992;2022-10-14T16:22:46;16.40;99.90
14093;DHT22;7123;49.468;10.992;2022-10-14T16:25:43;16.40;99.90
14093;DHT22;7123;49.468;10.992;2022-10-14T16:28:11;16.40;99.90
14093;DHT22;7123;49.468;10.992;2022-10-14T16:30:40;16.40;99.90
14093;DHT22;7123;49.468;10.992;2022-10-14T16:33:08;16.40;99.90
14093;DHT22;7123;49.468;10.992;2022-10-14T16:35:41;16.40;99.90
14093;DHT22;7123;49.468;10.992;2022-10-14T16:38:10;16.40;99.90
14093;DHT22;7123;49.468;10.992;2022-10-14T16:40:37;16.40;99.90
14093;DHT22;7123;49.468;10.992;2022-10-14T16:43:04;16.40;99.90
14093;DHT22;7123;49.468;10.992;2022-10-14T16:45:31;16.40;99.90
14093;DHT22;7123;49.468;10.992;2022-10-14T16:47:58;16.40;99.90
14093;DHT22;7123;49.468;10.992;2022-10-14T16:50:24;16.30;99.90
14093;DHT22;7123;49.468;10.992;2022-10-14T16:52:52;16.30;99.90
14093;DHT22;7123;49.468;10.992;2022-10-14T16:55:37;16.30;99.90
14093;DHT22;7123;49.468;10.992;2022-10-14T16:58:05;16.20;99.90
14093;DHT22;7123;49.468;10.992;2022-10-14T17:00:31;16.30;99.90
14093;DHT22;7123;49.468;10.992;2022-10-14T17:02:58;16.20;99.90
14093;DHT22;7123;49.468;10.992;2022-10-14T17:05:25;16.20;99.90
14093;DHT22;7123;49.468;10.992;2022-10-14T17:07:52;16.20;99.90
14093;DHT22;7123;49.468;10.992;2022-10-14T17:10:19;16.30;99.90
14093;DHT22;7123;49.468;10.992;2022-10-14T17:12:47;16.20;99.90
14093;DHT22;7123;49.468;10.992;2022-10-14T17:15:13;16.10;99.90
14093;DHT22;7123;49.468;10.992;2022-10-14T17:17:43;16.00;99.90
14093;DHT22;7123;49.468;10.992;2022-10-14T17:20:10;15.90;99.90
14093;DHT22;7123;49.468;10.992;2022-10-14T17:22:36;15.90;99.90
14093;DHT22;7123;49.468;10.992;2022-10-14T17:25:04;15.90;99.90
14093;DHT22;7123;49.468;10.992;2022-10-14T17:27:31;16.00;99.90
14093;DHT22;7123;49.468;10.992;2022-10-14T17:29:58;15.90;99.90
14093;DHT22;7123;49.468;10.992;2022-10-14T17:32:24;15.90;99.90
14093;DHT22;7123;49.468;10.992;2022-10-14T17:34:53;15.90;99.90
14093;DHT22;7123;49.468;10.992;2022-10-14T17:37:20;15.90;99.90
14093;DHT22;7123;49.468;10.992;2022-10-14T17:39:47;16.00;99.90
14093;DHT22;7123;49.468;10.992;2022-10-14T17:42:14;15.90;99.90
14093;DHT22;7123;49.468;10.992;2022-10-14T17:44:41;16.00;99.90
14093;DHT22;7123;49.468;10.992;2022-10-14T17:47:09;16.00;99.90
14093;DHT22;7123;49.468;10.992;2022-10-14T17:49:36;16.00;99.90
14093;DHT22;7123;49.468;10.992;2022-10-14T17:52:02;16.00;99.90
14093;DHT22;7123;49.468;10.992;2022-10-14T17:54:31;16.00;99.90